Time;durP1;ratioP1;P1;durP2;ratioP2;P2;SDS_P1;SDS_P2;PMS_P1;PMS_P2;Temp;Humidity;BMP_temperature;BMP_pressure;BME280_temperature;BME280_humidity;BME280_pressure;Samples;Min_cycle;Max_cycle;Signal;HPM_P1;HPM_P2
2022/03/31 00:00:35;;;;;;;5.38;1.15;;;3.80;99.90;;;;;;5057139;28;20036;-81
2022/03/31 00:03:04;;;;;;;6.22;0.82;;;3.80;99.90;;;;;;5033100;28;20053;-80
2022/03/31 00:05:30;;;;;;;7.07;0.90;;;3.80;99.90;;;;;;5031966;28;20454;-80
2022/03/31 00:07:58;;;;;;;4.05;0.80;;;3.80;99.90;;;;;;5045746;28;20406;-80
2022/03/31 00:10:34;;;;;;;4.72;0.77;;;3.70;99.90;;;;;;5070097;28;20464;-81
2022/03/31 00:13:02;;;;;;;2.88;0.90;;;3.70;99.90;;;;;;5045993;28;20139;-81
2022/03/31 00:15:29;;;;;;;6.20;1.13;;;3.70;99.90;;;;;;5048274;28;20053;-81
2022/03/31 00:17:56;;;;;;;8.95;0.98;;;3.70;99.90;;;;;;5031278;28;20040;-81
2022/03/31 00:23:43;;;;;;;5.05;1.00;;;3.70;99.90;;;;;;5034483;28;20051;-82
2022/03/31 00:26:09;;;;;;;8.60;1.00;;;3.60;99.90;;;;;;5070626;28;20044;-82
2022/03/31 00:28:35;;;;;;;9.20;0.90;;;4.10;99.90;;;;;;5043518;28;20494;-81
2022/03/31 00:31:01;;;;;;;6.60;0.80;;;3.90;99.90;;;;;;5074250;28;20037;-81
2022/03/31 00:33:26;;;;;;;4.45;0.88;;;3.60;99.90;;;;;;5069624;28;20043;-81
2022/03/31 00:35:53;;;;;;;4.93;1.00;;;4.30;99.90;;;;;;5050559;28;20111;-80
2022/03/31 00:38:19;;;;;;;6.15;1.20;;;3.60;99.90;;;;;;5051440;28;20485;-79
2022/03/31 00:40:49;;;;;;;6.13;1.00;;;3.50;99.90;;;;;;5052045;28;20047;-80
2022/03/31 00:43:14;;;;;;;7.50;1.30;;;3.50;99.90;;;;;;5038483;28;20083;-79
2022/03/31 00:45:51;;;;;;;3.55;0.98;;;3.50;99.90;;;;;;5069073;28;20080;-81
2022/03/31 00:48:19;;;;;;;3.78;0.90;;;3.50;99.90;;;;;;5072810;28;20578;-80
2022/03/31 00:50:46;;;;;;;6.55;1.50;;;3.40;99.90;;;;;;5058397;28;20097;-80
2022/03/31 00:53:17;;;;;;;4.18;1.33;;;3.40;99.90;;;;;;5077187;28;20036;-80
2022/03/31 00:55:44;;;;;;;;;;;3.40;99.90;;;;;;5055140;28;20040;-80
2022/03/31 00:58:11;;;;;;;5.28;1.10;;;3.40;99.90;;;;;;5055121;28;19951;-80
2022/03/31 01:00:37;;;;;;;5.60;1.00;;;3.30;99.90;;;;;;5053331;28;20539;-81
2022/03/31 01:03:03;;;;;;;6.63;1.60;;;3.30;99.90;;;;;;5070327;28;20040;-81
2022/03/31 01:05:29;;;;;;;5.25;1.10;;;3.30;99.90;;;;;;5054457;28;20044;-80
2022/03/31 01:07:55;;;;;;;8.85;1.17;;;3.30;99.90;;;;;;5081138;28;20107;-81
2022/03/31 01:10:22;;;;;;;6.25;1.00;;;3.30;99.90;;;;;;5051994;28;20333;-79
2022/03/31 01:12:49;;;;;;;4.20;1.10;;;3.20;99.90;;;;;;5064803;28;20043;-80
2022/03/31 01:15:14;;;;;;;8.35;0.95;;;3.20;99.90;;;;;;5065240;28;20040;-80
2022/03/31 01:17:43;;;;;;;6.10;0.98;;;3.20;99.90;;;;;;5044156;28;20127;-79
2022/03/31 01:20:15;;;;;;;6.47;1.33;;;3.20;99.90;;;;;;5052915;28;20036;-80
2022/03/31 01:22:43;;;;;;;8.73;1.10;;;3.20;99.90;;;;;;5047149;28;20067;-80
2022/03/31 01:25:09;;;;;;;4.38;1.00;;;3.20;99.90;;;;;;5049603;28;20097;-80
2022/03/31 01:27:38;;;;;;;3.95;1.00;;;3.20;99.90;;;;;;5034658;28;20076;-79
2022/03/31 01:30:09;;;;;;;5.72;1.08;;;3.20;99.90;;;;;;5051516;28;20562;-80
2022/03/31 01:32:35;;;;;;;4.38;0.93;;;3.20;99.90;;;;;;5033609;28;20036;-80
2022/03/31 01:35:03;;;;;;;6.22;1.20;;;3.10;99.90;;;;;;5030542;28;20110;-81
2022/03/31 01:37:29;;;;;;;4.00;1.00;;;3.20;99.90;;;;;;5052912;28;20371;-80
2022/03/31 01:39:55;;;;;;;4.22;1.00;;;3.20;99.90;;;;;;5041817;28;20044;-80
2022/03/31 01:42:22;;;;;;;4.40;0.90;;;3.20;99.90;;;;;;5045176;28;20044;-80
2022/03/31 01:44:49;;;;;;;6.07;1.20;;;3.20;99.90;;;;;;5033696;28;20051;-80
2022/03/31 01:47:15;;;;;;;5.95;0.93;;;3.30;99.90;;;;;;5067786;28;20048;-80
2022/03/31 01:49:41;;;;;;;4.43;0.90;;;3.30;99.90;;;;;;5048322;28;20032;-80
2022/03/31 01:52:07;;;;;;;3.15;0.70;;;3.30;99.90;;;;;;5031130;28;20119;-80
2022/03/31 01:54:36;;;;;;;3.97;0.75;;;3.30;99.90;;;;;;5064548;28;20045;-80
2022/03/31 01:57:03;;;;;;;3.00;0.88;;;3.20;99.90;;;;;;5050368;28;20564;-81
2022/03/31 01:59:36;;;;;;;6.20;1.00;;;3.20;99.90;;;;;;5046535;28;20178;-82
2022/03/31 02:02:03;;;;;;;3.97;1.00;;;3.20;99.90;;;;;;5056025;28;20052;-81
2022/03/31 02:04:29;;;;;;;5.38;1.30;;;3.20;99.90;;;;;;5030964;28;20040;-81
2022/03/31 02:06:55;;;;;;;4.50;1.00;;;3.20;99.90;;;;;;5051655;28;20040;-80
2022/03/31 02:09:21;;;;;;;4.97;1.30;;;3.20;99.90;;;;;;5051763;28;20056;-81
2022/03/31 02:11:47;;;;;;;3.10;1.10;;;3.20;99.90;;;;;;5048872;28;20041;-79
2022/03/31 02:14:13;;;;;;;8.40;1.60;;;3.20;99.90;;;;;;5040488;28;20056;-80
2022/03/31 02:16:40;;;;;;;5.10;1.38;;;3.20;99.90;;;;;;5047032;28;20063;-80
2022/03/31 02:19:05;;;;;;;6.20;1.98;;;3.10;99.90;;;;;;5058973;28;20048;-81
2022/03/31 02:21:31;;;;;;;5.07;1.85;;;3.10;99.90;;;;;;5034456;28;20037;-80
2022/03/31 02:23:57;;;;;;;6.75;2.70;;;3.20;99.90;;;;;;5039461;28;20071;-80
2022/03/31 02:26:23;;;;;;;7.20;2.70;;;3.20;99.90;;;;;;5067413;28;20037;-80
2022/03/31 02:28:49;;;;;;;9.52;3.03;;;3.10;99.90;;;;;;5044426;28;20102;-81
2022/03/31 02:31:14;;;;;;;8.82;2.95;;;3.10;99.90;;;;;;5066235;28;20040;-80
2022/03/31 02:33:40;;;;;;;9.18;3.20;;;3.10;99.90;;;;;;5050828;28;20407;-81
2022/03/31 02:36:07;;;;;;;6.90;3.00;;;3.10;99.90;;;;;;5068431;28;20087;-81
2022/03/31 02:38:34;;;;;;;9.30;3.22;;;3.10;99.90;;;;;;5050655;28;20048;-81
2022/03/31 02:41:00;;;;;;;12.35;3.60;;;3.10;99.90;;;;;;5033749;28;20123;-82
2022/03/31 02:43:27;;;;;;;10.15;4.20;;;3.10;99.90;;;;;;5041035;28;20110;-81
2022/03/31 02:45:55;;;;;;;10.90;5.05;;;3.10;99.90;;;;;;5061691;28;20117;-82
2022/03/31 02:48:21;;;;;;;13.00;5.93;;;3.10;99.90;;;;;;5045094;28;20127;-82
2022/03/31 02:50:46;;;;;;;10.40;5.57;;;3.10;99.90;;;;;;5057493;28;20166;-82
2022/03/31 02:55:56;;;;;;;10.85;6.13;;;3.00;99.90;;;;;;5036360;28;20049;-82
2022/03/31 02:58:22;;;;;;;9.93;5.90;;;3.00;99.90;;;;;;5050272;28;20371;-82
2022/03/31 03:00:48;;;;;;;14.23;6.22;;;3.00;99.90;;;;;;5066565;28;20037;-82
2022/03/31 03:03:14;;;;;;;12.63;6.05;;;3.00;99.90;;;;;;5049799;28;20497;-82
2022/03/31 03:05:42;;;;;;;13.48;6.35;;;3.00;99.90;;;;;;5052139;28;20059;-82
2022/03/31 03:08:08;;;;;;;11.43;6.32;;;3.00;99.90;;;;;;5054312;28;20036;-83
2022/03/31 03:10:34;;;;;;;13.38;7.93;;;3.00;99.90;;;;;;5052917;28;20039;-82
2022/03/31 03:13:00;;;;;;;14.65;8.57;;;3.00;99.90;;;;;;5058835;28;20397;-83
2022/03/31 03:15:25;;;;;;;12.02;6.90;;;2.90;99.90;;;;;;5032581;28;20097;-82
2022/03/31 03:17:51;;;;;;;11.90;6.45;;;2.90;99.90;;;;;;5033248;28;20123;-80
2022/03/31 03:20:18;;;;;;;12.40;5.97;;;2.90;99.90;;;;;;5067455;28;20036;-83
2022/03/31 03:22:46;;;;;;;11.07;5.35;;;2.90;99.90;;;;;;5050338;28;20032;-83
2022/03/31 03:25:12;;;;;;;9.73;5.47;;;2.90;99.90;;;;;;5047928;28;20048;-83
2022/03/31 03:27:39;;;;;;;6.90;4.25;;;2.80;99.90;;;;;;5067650;28;20062;-82
2022/03/31 03:30:06;;;;;;;7.20;4.38;;;2.70;99.90;;;;;;5033791;28;20586;-81
2022/03/31 03:32:32;;;;;;;10.65;3.67;;;2.80;99.90;;;;;;5045949;28;20128;-82
2022/03/31 03:34:58;;;;;;;5.93;3.28;;;2.70;99.90;;;;;;5050905;28;20103;-81
2022/03/31 03:37:24;;;;;;;5.88;3.25;;;2.70;99.90;;;;;;5034800;28;20113;-82
2022/03/31 03:39:49;;;;;;;6.35;3.58;;;2.60;99.90;;;;;;5051810;28;20039;-82
2022/03/31 03:42:15;;;;;;;5.75;3.40;;;2.60;99.90;;;;;;5073655;28;20051;-81
2022/03/31 03:44:41;;;;;;;7.32;3.05;;;2.60;99.90;;;;;;5073603;28;20036;-82
2022/03/31 03:47:07;;;;;;;5.82;2.33;;;2.60;99.90;;;;;;5052327;28;20626;-82
2022/03/31 03:49:33;;;;;;;6.32;2.22;;;2.60;99.90;;;;;;5067916;28;20105;-82
2022/03/31 03:51:59;;;;;;;6.70;2.17;;;2.60;99.90;;;;;;5057117;28;20047;-83
2022/03/31 03:54:26;;;;;;;4.85;2.30;;;2.60;99.90;;;;;;5040850;28;20571;-83
2022/03/31 03:56:51;;;;;;;4.90;2.13;;;2.60;99.90;;;;;;5014232;28;20123;-82
2022/03/31 03:59:17;;;;;;;4.10;2.25;;;2.60;99.90;;;;;;5075217;28;20036;-82
2022/03/31 04:01:43;;;;;;;5.68;2.42;;;2.60;99.90;;;;;;5047224;28;20135;-82
2022/03/31 04:04:08;;;;;;;6.15;2.78;;;2.60;99.90;;;;;;5056632;28;20036;-83
2022/03/31 04:06:34;;;;;;;5.72;3.13;;;2.50;99.90;;;;;;5037820;28;20067;-84
2022/03/31 04:09:00;;;;;;;5.88;2.83;;;2.50;99.90;;;;;;5074238;28;20121;-82
2022/03/31 04:11:25;;;;;;;5.45;2.80;;;2.50;99.90;;;;;;5047211;28;20044;-84
2022/03/31 04:13:51;;;;;;;7.47;4.85;;;2.50;99.90;;;;;;5036523;28;20032;-84
2022/03/31 04:16:17;;;;;;;9.05;5.47;;;2.50;99.90;;;;;;5042861;28;20049;-84
2022/03/31 04:18:42;;;;;;;8.07;5.05;;;2.40;99.90;;;;;;5062702;28;20104;-84
2022/03/31 04:21:10;;;;;;;8.93;5.00;;;2.40;99.90;;;;;;5053365;28;20072;-85
2022/03/31 04:23:36;;;;;;;7.53;4.38;;;2.40;99.90;;;;;;5057276;28;20048;-87
2022/03/31 04:26:03;;;;;;;9.10;4.50;;;2.30;99.90;;;;;;5053231;28;20040;-87
2022/03/31 04:28:29;;;;;;;8.40;4.28;;;2.20;99.90;;;;;;5036907;28;20106;-86
2022/03/31 04:30:54;;;;;;;6.85;4.00;;;2.20;99.90;;;;;;5034610;28;20043;-85
2022/03/31 04:33:20;;;;;;;8.07;4.78;;;2.20;99.90;;;;;;5038927;28;20161;-85
2022/03/31 04:35:46;;;;;;;8.27;5.10;;;2.20;99.90;;;;;;5076526;28;20036;-85
2022/03/31 04:38:11;;;;;;;8.90;5.30;;;2.10;99.90;;;;;;5042603;28;20044;-85
2022/03/31 04:40:37;;;;;;;9.25;5.80;;;2.10;99.90;;;;;;5077803;28;20032;-85
2022/03/31 04:43:03;;;;;;;9.57;5.97;;;2.10;99.90;;;;;;5042521;28;20543;-85
2022/03/31 04:45:29;;;;;;;10.10;6.40;;;2.00;99.90;;;;;;5058663;28;20505;-85
2022/03/31 04:47:54;;;;;;;11.00;6.57;;;2.00;99.90;;;;;;5067133;28;20497;-85
2022/03/31 04:50:20;;;;;;;9.82;5.38;;;2.00;99.90;;;;;;5085638;28;20458;-86
2022/03/31 04:52:46;;;;;;;8.02;4.30;;;2.70;99.90;;;;;;5068714;28;20039;-86
2022/03/31 04:55:12;;;;;;;8.80;3.90;;;1.90;99.90;;;;;;5055850;28;20085;-84
2022/03/31 04:57:38;;;;;;;8.88;3.35;;;1.90;99.90;;;;;;5044259;28;20072;-86
2022/03/31 05:00:05;;;;;;;7.65;3.10;;;1.90;99.90;;;;;;5036069;28;20127;-86
2022/03/31 05:02:31;;;;;;;14.80;2.97;;;1.80;99.90;;;;;;5017440;28;20040;-87
2022/03/31 05:04:57;;;;;;;9.60;2.80;;;1.80;99.90;;;;;;5047711;28;20467;-85
2022/03/31 05:07:23;;;;;;;6.28;2.58;;;1.70;99.90;;;;;;5035943;28;20036;-86
2022/03/31 05:09:49;;;;;;;6.43;2.78;;;1.70;99.90;;;;;;5057830;28;20424;-87
2022/03/31 05:12:14;;;;;;;5.43;2.35;;;1.70;99.90;;;;;;5060624;28;20048;-86
2022/03/31 05:14:41;;;;;;;5.43;2.80;;;1.70;99.90;;;;;;5038320;28;20483;-86
2022/03/31 05:17:07;;;;;;;8.02;2.90;;;1.70;99.90;;;;;;5035079;28;20048;-85
2022/03/31 05:19:33;;;;;;;10.68;3.35;;;2.30;99.90;;;;;;5047043;28;20048;-85
2022/03/31 05:21:59;;;;;;;6.28;3.17;;;1.70;99.90;;;;;;5049945;28;20457;-85
2022/03/31 05:24:25;;;;;;;7.50;3.00;;;2.70;99.90;;;;;;5061328;28;20075;-85
2022/03/31 05:26:54;;;;;;;6.57;2.90;;;1.70;99.90;;;;;;5074795;28;20504;-87
2022/03/31 05:29:20;;;;;;;9.25;3.92;;;1.80;99.90;;;;;;5056382;28;20044;-86
2022/03/31 05:31:46;;;;;;;7.03;3.03;;;1.80;99.90;;;;;;5028329;28;20040;-86
2022/03/31 05:34:12;;;;;;;8.48;3.63;;;1.80;99.90;;;;;;5039177;28;20032;-87
2022/03/31 05:36:38;;;;;;;7.88;3.70;;;1.80;99.90;;;;;;5056604;28;20063;-86
2022/03/31 05:39:04;;;;;;;6.75;3.88;;;1.90;99.90;;;;;;5060237;28;20039;-86
2022/03/31 05:41:30;;;;;;;9.25;4.00;;;1.90;99.90;;;;;;5071127;28;21667;-85
2022/03/31 05:43:56;;;;;;;7.80;4.15;;;1.90;99.90;;;;;;5033497;28;20458;-87
2022/03/31 05:46:23;;;;;;;9.73;4.15;;;2.00;99.90;;;;;;5061825;28;20165;-85
2022/03/31 05:48:49;;;;;;;9.07;4.07;;;2.00;99.90;;;;;;5047113;28;20048;-84
2022/03/31 05:51:15;;;;;;;6.90;4.25;;;2.00;99.90;;;;;;5024909;28;20029;-84
2022/03/31 05:53:41;;;;;;;7.75;4.75;;;2.10;99.90;;;;;;5044506;28;21417;-84
2022/03/31 05:56:07;;;;;;;11.55;4.13;;;2.10;99.90;;;;;;5043304;28;20048;-84
2022/03/31 05:58:33;;;;;;;7.43;4.30;;;2.20;99.90;;;;;;5071154;28;20055;-83
2022/03/31 06:01:00;;;;;;;6.93;3.90;;;2.20;99.90;;;;;;5028064;28;20044;-84
2022/03/31 06:03:25;;;;;;;6.80;4.30;;;2.20;99.90;;;;;;5039787;28;20055;-85
2022/03/31 06:05:52;;;;;;;7.70;4.88;;;2.30;99.90;;;;;;5046440;28;20044;-85
2022/03/31 06:08:17;;;;;;;6.50;4.25;;;2.30;99.90;;;;;;5028508;28;20051;-86
2022/03/31 06:10:46;;;;;;;7.30;4.50;;;2.30;99.90;;;;;;5058396;28;20035;-85
2022/03/31 06:13:12;;;;;;;9.25;4.97;;;2.30;99.90;;;;;;5044161;28;20075;-84
2022/03/31 06:15:39;;;;;;;6.93;4.68;;;2.30;99.90;;;;;;5059037;28;20055;-84
2022/03/31 06:18:07;;;;;;;8.95;5.50;;;2.30;99.90;;;;;;5060509;28;20032;-84
2022/03/31 06:20:34;;;;;;;10.38;4.93;;;2.30;99.90;;;;;;5044793;28;20813;-85
2022/03/31 06:23:00;;;;;;;7.45;5.10;;;2.30;99.90;;;;;;5045530;28;20095;-84
2022/03/31 06:25:26;;;;;;;8.45;5.45;;;2.30;99.90;;;;;;5081260;28;20104;-84
2022/03/31 06:27:52;;;;;;;8.23;5.68;;;2.30;99.90;;;;;;5082184;28;20497;-82
2022/03/31 06:30:18;;;;;;;7.97;5.22;;;2.30;99.90;;;;;;5062927;28;20059;-83
2022/03/31 06:32:44;;;;;;;8.00;5.28;;;2.30;99.90;;;;;;5047631;28;20043;-84
2022/03/31 06:35:14;;;;;;;8.18;5.45;;;2.30;99.90;;;;;;5029367;28;20054;-85
2022/03/31 06:37:41;;;;;;;8.82;5.63;;;2.30;99.90;;;;;;5081277;28;20032;-84
2022/03/31 06:40:09;;;;;;;9.45;6.15;;;2.40;99.90;;;;;;5062055;28;20199;-84
2022/03/31 06:42:35;;;;;;;10.05;6.35;;;2.30;99.90;;;;;;5081046;28;20073;-86
2022/03/31 06:45:02;;;;;;;9.40;6.32;;;2.30;99.90;;;;;;5062977;28;20036;-87
2022/03/31 06:47:28;;;;;;;9.07;6.00;;;2.30;99.90;;;;;;5061807;28;20040;-86
2022/03/31 06:49:54;;;;;;;9.50;6.00;;;2.30;99.90;;;;;;5077206;28;20054;-84
2022/03/31 06:52:19;;;;;;;11.23;7.03;;;2.40;99.90;;;;;;5062957;28;20052;-86
2022/03/31 06:54:45;;;;;;;9.95;6.60;;;2.40;99.90;;;;;;5045141;28;20496;-83
2022/03/31 06:57:10;;;;;;;9.23;6.40;;;2.40;99.90;;;;;;5062118;28;20048;-85
2022/03/31 06:59:36;;;;;;;9.82;6.55;;;2.40;99.90;;;;;;5083320;28;20032;-83
2022/03/31 07:02:02;;;;;;;8.55;6.05;;;2.40;99.90;;;;;;5046352;28;20111;-83
2022/03/31 07:04:28;;;;;;;9.85;6.80;;;2.50;99.90;;;;;;5041467;28;20129;-83
2022/03/31 07:06:54;;;;;;;9.23;6.43;;;2.60;99.90;;;;;;5043186;28;20028;-83
2022/03/31 07:09:19;;;;;;;9.35;6.43;;;2.50;99.90;;;;;;5065742;28;20090;-84
2022/03/31 07:11:45;;;;;;;11.15;7.20;;;2.50;99.90;;;;;;5040979;28;20461;-83
2022/03/31 07:14:11;;;;;;;10.00;6.55;;;2.50;99.90;;;;;;5040224;28;20077;-85
2022/03/31 07:16:36;;;;;;;10.48;6.95;;;2.50;99.90;;;;;;5041822;28;20496;-84
2022/03/31 07:19:03;;;;;;;10.48;6.88;;;2.50;99.90;;;;;;5041327;28;20093;-84
2022/03/31 07:21:29;;;;;;;9.48;6.20;;;3.00;99.90;;;;;;5046423;28;20041;-82
2022/03/31 07:23:54;;;;;;;9.18;6.68;;;2.50;99.90;;;;;;5046270;28;21367;-85
2022/03/31 07:26:22;;;;;;;11.02;7.78;;;3.30;99.90;;;;;;5043439;28;20516;-85
2022/03/31 07:28:48;;;;;;;10.48;7.35;;;2.50;99.90;;;;;;5068740;28;20044;-84
2022/03/31 07:31:14;;;;;;;10.80;7.38;;;2.50;99.90;;;;;;5034106;28;20131;-85
2022/03/31 07:33:40;;;;;;;11.23;7.43;;;2.50;99.90;;;;;;5023244;28;20036;-83
2022/03/31 07:36:07;;;;;;;11.90;8.10;;;2.50;99.90;;;;;;5029158;28;20044;-84
2022/03/31 07:38:33;;;;;;;11.30;8.10;;;2.60;99.90;;;;;;5043785;28;20047;-84
2022/03/31 07:40:59;;;;;;;11.55;8.00;;;2.50;99.90;;;;;;5052956;28;20229;-83
2022/03/31 07:43:27;;;;;;;11.60;8.15;;;2.50;99.90;;;;;;5050100;28;20055;-83
2022/03/31 07:45:53;;;;;;;11.45;8.02;;;2.60;99.90;;;;;;5063574;28;20066;-85
2022/03/31 07:48:19;;;;;;;12.85;9.00;;;2.60;99.90;;;;;;5040041;28;20048;-84
2022/03/31 07:50:45;;;;;;;9.98;7.13;;;2.50;99.90;;;;;;5047996;28;20032;-85
2022/03/31 07:53:17;;;;;;;11.77;8.05;;;2.50;99.90;;;;;;5025924;28;20043;-83
2022/03/31 07:55:43;;;;;;;12.90;9.10;;;2.50;99.90;;;;;;5070341;28;20048;-83
2022/03/31 07:58:08;;;;;;;11.15;7.82;;;2.60;99.90;;;;;;5054151;28;20125;-84
2022/03/31 08:00:34;;;;;;;11.77;8.23;;;2.50;99.90;;;;;;5052177;28;20070;-84
2022/03/31 08:03:01;;;;;;;12.02;8.27;;;2.60;99.90;;;;;;5051375;28;20040;-84
2022/03/31 08:05:28;;;;;;;11.63;7.75;;;2.60;99.90;;;;;;5062971;28;20059;-83
2022/03/31 08:07:54;;;;;;;10.55;7.50;;;2.60;99.90;;;;;;5078346;28;20090;-85
2022/03/31 08:10:21;;;;;;;11.45;8.10;;;3.10;99.90;;;;;;5068440;28;20152;-84
2022/03/31 08:12:47;;;;;;;9.18;6.40;;;2.60;99.90;;;;;;5086410;28;20048;-83
2022/03/31 08:15:15;;;;;;;9.90;6.38;;;2.60;99.90;;;;;;5048099;28;20492;-83
2022/03/31 08:17:45;;;;;;;9.45;6.03;;;2.60;99.90;;;;;;5041919;28;20070;-84
2022/03/31 08:20:13;;;;;;;11.05;6.80;;;2.60;99.90;;;;;;5056065;28;20097;-84
2022/03/31 08:22:39;;;;;;;10.35;7.28;;;2.80;99.90;;;;;;5049964;28;20094;-85
2022/03/31 08:25:09;;;;;;;9.52;6.80;;;3.00;99.90;;;;;;5056453;28;20044;-84
2022/03/31 08:27:36;;;;;;;10.57;6.60;;;2.50;99.90;;;;;;5059228;28;20032;-85
2022/03/31 08:30:06;;;;;;;10.82;7.38;;;2.50;99.90;;;;;;5083882;28;20105;-85
2022/03/31 08:32:35;;;;;;;13.35;8.50;;;2.50;99.90;;;;;;5074790;28;20089;-84
2022/03/31 08:35:03;;;;;;;12.07;8.30;;;2.40;99.90;;;;;;5061252;28;20559;-87
2022/03/31 08:37:29;;;;;;;13.85;8.50;;;2.40;99.90;;;;;;5043216;28;20032;-85
2022/03/31 08:39:55;;;;;;;11.35;7.72;;;2.40;99.90;;;;;;5054590;28;20501;-84
2022/03/31 08:42:21;;;;;;;11.88;8.40;;;2.70;99.90;;;;;;5084525;28;20114;-83
2022/03/31 08:44:50;;;;;;;13.15;8.30;;;2.40;99.90;;;;;;5065198;28;20070;-85
2022/03/31 08:47:17;;;;;;;13.27;7.55;;;2.40;99.90;;;;;;5048982;28;20530;-84
2022/03/31 08:49:44;;;;;;;12.13;7.43;;;2.30;99.90;;;;;;5058340;28;20052;-84
2022/03/31 08:52:10;;;;;;;10.43;6.75;;;2.40;99.90;;;;;;5057836;28;20065;-85
2022/03/31 08:54:36;;;;;;;11.30;7.18;;;2.30;99.90;;;;;;5062538;28;20035;-84
2022/03/31 08:57:02;;;;;;;11.65;7.07;;;2.40;99.90;;;;;;5051071;28;20070;-85
2022/03/31 08:59:28;;;;;;;12.52;7.40;;;2.30;99.90;;;;;;5048312;28;20039;-86
2022/03/31 09:01:54;;;;;;;15.27;8.55;;;2.30;99.90;;;;;;5061204;28;20040;-85
2022/03/31 09:04:23;;;;;;;14.77;9.57;;;2.20;99.90;;;;;;5079003;28;21242;-86
2022/03/31 09:07:02;;;;;;;14.23;9.30;;;2.20;99.90;;;;;;5062847;28;20171;-87
2022/03/31 09:09:28;;;;;;;16.30;9.95;;;2.10;99.90;;;;;;5060358;28;20049;-85
2022/03/31 09:11:54;;;;;;;14.70;9.13;;;2.10;99.90;;;;;;5056160;28;20048;-84
2022/03/31 09:14:31;;;;;;;15.80;9.60;;;2.00;99.90;;;;;;5061646;28;20134;-85
2022/03/31 09:17:10;;;;;;;17.73;10.38;;;2.00;99.90;;;;;;5028540;28;20052;-85
2022/03/31 09:19:35;;;;;;;14.23;9.18;;;2.30;99.90;;;;;;5063316;28;20054;-85
2022/03/31 09:22:01;;;;;;;16.05;8.50;;;1.90;99.90;;;;;;5062643;28;20040;-85
2022/03/31 09:24:29;;;;;;;15.43;9.82;;;1.90;99.90;;;;;;5033000;28;20043;-85
2022/03/31 09:26:56;;;;;;;13.45;8.10;;;1.90;99.90;;;;;;5055487;28;20113;-85
2022/03/31 09:29:24;;;;;;;13.93;8.02;;;1.90;99.90;;;;;;5059329;28;20175;-85
2022/03/31 09:31:51;;;;;;;12.07;7.63;;;2.50;99.90;;;;;;5055058;28;20047;-84
2022/03/31 09:34:18;;;;;;;12.10;7.28;;;2.80;99.90;;;;;;5055900;28;20659;-85
2022/03/31 09:36:51;;;;;;;12.20;7.88;;;1.90;99.90;;;;;;5047332;28;20040;-85
2022/03/31 09:39:19;;;;;;;11.15;6.88;;;2.80;99.90;;;;;;5069717;28;20044;-84
2022/03/31 09:41:47;;;;;;;10.63;6.47;;;1.70;99.90;;;;;;5040899;28;20036;-87
2022/03/31 09:44:19;;;;;;;11.40;6.63;;;1.60;99.90;;;;;;5051709;28;20044;-86
2022/03/31 09:46:46;;;;;;;12.55;6.53;;;1.60;99.90;;;;;;5025967;28;20122;-84
2022/03/31 09:49:16;;;;;;;10.13;5.80;;;1.60;99.90;;;;;;5059103;28;20043;-85
2022/03/31 09:51:48;;;;;;;9.23;5.72;;;1.50;99.90;;;;;;5058092;28;20089;-84
2022/03/31 09:54:15;;;;;;;8.98;5.97;;;1.40;99.90;;;;;;5052376;28;20047;-83
2022/03/31 09:56:41;;;;;;;8.90;4.95;;;1.30;99.90;;;;;;5044497;28;20393;-86
2022/03/31 09:59:11;;;;;;;9.15;5.60;;;1.20;99.90;;;;;;5062206;28;20126;-84
2022/03/31 10:01:38;;;;;;;8.20;4.93;;;1.20;99.90;;;;;;5040362;28;20044;-82
2022/03/31 10:04:06;;;;;;;8.13;4.85;;;1.10;99.90;;;;;;5053433;28;20532;-83
2022/03/31 10:06:34;;;;;;;9.43;5.38;;;1.10;99.90;;;;;;5046661;28;20056;-83
2022/03/31 10:09:00;;;;;;;7.97;4.82;;;1.10;99.90;;;;;;5041393;28;20044;-83
2022/03/31 10:11:31;;;;;;;9.93;5.85;;;1.10;99.90;;;;;;5057915;28;20131;-82
2022/03/31 10:14:05;;;;;;;12.15;6.28;;;1.00;99.90;;;;;;5033386;28;20667;-80
2022/03/31 10:16:48;;;;;;;12.50;6.10;;;1.00;99.90;;;;;;5071093;28;20094;-80
2022/03/31 10:19:35;;;;;;;11.65;6.72;;;0.90;99.90;;;;;;5051924;28;20185;-80
2022/03/31 10:22:04;;;;;;;9.95;5.93;;;1.60;99.90;;;;;;5030724;28;20090;-81
2022/03/31 10:24:44;;;;;;;10.75;6.88;;;0.80;99.90;;;;;;5068412;28;20779;-80
2022/03/31 10:27:24;;;;;;;11.23;6.10;;;0.80;99.90;;;;;;5052937;28;20040;-80
2022/03/31 10:29:49;;;;;;;10.85;6.82;;;0.80;99.90;;;;;;5047527;28;20130;-80
2022/03/31 10:32:21;;;;;;;11.40;6.32;;;0.80;99.90;;;;;;5028081;28;21592;-80
2022/03/31 10:34:49;;;;;;;11.45;7.03;;;0.80;99.90;;;;;;5049438;28;20277;-79
2022/03/31 10:37:17;;;;;;;10.38;7.03;;;0.90;99.90;;;;;;5026425;28;20044;-81
2022/03/31 10:39:56;;;;;;;13.10;7.65;;;0.90;99.90;;;;;;5044634;28;20739;-80
2022/03/31 10:42:22;;;;;;;11.27;6.60;;;0.90;99.90;;;;;;5061399;28;20079;-79
2022/03/31 10:44:48;;;;;;;9.73;5.50;;;0.80;99.90;;;;;;5029807;28;20052;-79
2022/03/31 10:47:14;;;;;;;10.35;6.22;;;0.90;99.90;;;;;;5033812;28;20492;-78
2022/03/31 10:49:52;;;;;;;9.73;6.00;;;0.80;99.90;;;;;;5034647;28;21366;-78
2022/03/31 10:52:23;;;;;;;9.90;5.65;;;0.90;99.90;;;;;;5031158;28;20618;-78
2022/03/31 10:54:50;;;;;;;9.48;5.65;;;0.80;99.90;;;;;;5028563;28;20178;-77
2022/03/31 10:57:17;;;;;;;12.05;6.45;;;0.90;99.90;;;;;;5060646;28;20708;-77
2022/03/31 10:59:45;;;;;;;8.18;5.10;;;1.10;99.90;;;;;;5049998;28;20039;-77
2022/03/31 11:02:20;;;;;;;9.90;6.13;;;0.80;99.90;;;;;;5055175;28;20044;-77
2022/03/31 11:04:47;;;;;;;9.77;5.82;;;0.80;99.90;;;;;;5063324;28;20045;-77
2022/03/31 11:07:26;;;;;;;8.82;5.25;;;0.80;99.90;;;;;;5038257;28;20528;-77
2022/03/31 11:10:03;;;;;;;9.23;6.00;;;0.80;99.90;;;;;;5040269;28;20681;-75
2022/03/31 11:12:29;;;;;;;9.98;6.47;;;0.90;99.90;;;;;;5056216;28;20074;-76
2022/03/31 11:15:07;;;;;;;9.52;5.65;;;1.60;99.90;;;;;;5044796;28;20087;-74
2022/03/31 11:17:33;;;;;;;10.43;5.75;;;0.90;99.90;;;;;;5041366;28;20049;-78
2022/03/31 11:20:03;;;;;;;9.65;5.30;;;0.90;99.90;;;;;;5046723;28;20434;-77
2022/03/31 11:22:30;;;;;;;8.57;5.47;;;0.90;99.90;;;;;;5021703;28;20171;-74
2022/03/31 11:25:08;;;;;;;10.77;5.75;;;1.00;99.90;;;;;;5068134;28;20036;-75
2022/03/31 11:27:37;;;;;;;10.18;4.72;;;1.00;99.90;;;;;;5036478;28;20047;-77
2022/03/31 11:30:05;;;;;;;9.27;4.80;;;0.90;99.90;;;;;;5033941;28;20047;-76
2022/03/31 11:32:32;;;;;;;8.20;5.13;;;1.00;99.90;;;;;;5070990;28;20072;-77
2022/03/31 11:34:58;;;;;;;8.00;5.07;;;0.90;99.90;;;;;;5071637;28;20040;-76
2022/03/31 11:37:24;;;;;;;9.05;5.40;;;0.80;99.90;;;;;;5033869;28;20052;-78
2022/03/31 11:39:50;;;;;;;10.20;5.07;;;0.80;99.90;;;;;;5013693;28;21076;-77
2022/03/31 11:42:16;;;;;;;10.43;6.00;;;0.80;99.90;;;;;;5034503;28;20040;-78
2022/03/31 11:44:42;;;;;;;9.65;5.03;;;0.80;99.90;;;;;;5050663;28;20052;-79
2022/03/31 11:47:21;;;;;;;8.63;4.93;;;0.70;99.90;;;;;;5055334;28;20087;-75
2022/03/31 11:49:58;;;;;;;8.05;5.03;;;0.70;99.90;;;;;;5051043;28;20036;-76
2022/03/31 11:52:32;;;;;;;8.02;4.07;;;0.70;99.90;;;;;;5037738;28;20048;-76
2022/03/31 11:55:00;;;;;;;8.95;5.35;;;0.70;99.90;;;;;;5017006;28;20132;-78
2022/03/31 11:57:28;;;;;;;8.43;5.03;;;0.60;99.90;;;;;;5069372;28;20173;-77
2022/03/31 11:59:55;;;;;;;9.25;5.68;;;0.60;99.90;;;;;;5064093;28;20047;-77
2022/03/31 12:02:21;;;;;;;8.10;5.03;;;0.60;99.90;;;;;;5071474;28;20115;-76
2022/03/31 12:04:48;;;;;;;8.88;4.50;;;0.60;99.90;;;;;;5059410;28;20135;-77
2022/03/31 12:07:16;;;;;;;9.70;5.40;;;0.60;99.90;;;;;;5034001;28;20074;-75
2022/03/31 12:09:43;;;;;;;7.53;4.28;;;0.60;99.90;;;;;;5050762;28;20147;-77
2022/03/31 12:12:16;;;;;;;8.05;4.78;;;1.10;99.90;;;;;;5072952;28;20044;-76
2022/03/31 12:14:56;;;;;;;8.35;4.90;;;0.50;99.90;;;;;;5033437;28;20806;-78
2022/03/31 12:17:22;;;;;;;10.25;5.78;;;0.50;99.90;;;;;;5045794;28;20043;-78
2022/03/31 12:19:48;;;;;;;9.10;5.50;;;0.50;99.90;;;;;;5058716;28;20397;-78
2022/03/31 12:22:15;;;;;;;12.73;6.32;;;0.50;99.90;;;;;;5037932;28;20818;-77
2022/03/31 12:24:49;;;;;;;7.80;4.90;;;0.50;99.90;;;;;;5069050;28;20044;-78
2022/03/31 12:27:17;;;;;;;9.10;5.65;;;0.50;99.90;;;;;;5051540;28;20076;-77
2022/03/31 12:29:43;;;;;;;10.25;5.97;;;0.50;99.90;;;;;;5053394;28;20043;-77
2022/03/31 12:32:11;;;;;;;8.93;4.40;;;0.50;99.90;;;;;;5028313;28;20421;-78
2022/03/31 12:34:40;;;;;;;8.90;5.30;;;0.50;99.90;;;;;;5033487;28;20049;-77
2022/03/31 12:37:06;;;;;;;9.05;5.88;;;0.50;99.90;;;;;;5044270;28;20080;-77
2022/03/31 12:39:44;;;;;;;9.88;6.55;;;0.60;99.90;;;;;;5030909;28;20043;-77
2022/03/31 12:42:11;;;;;;;10.48;6.75;;;0.60;99.90;;;;;;5076686;28;20051;-77
2022/03/31 12:44:41;;;;;;;10.57;6.70;;;1.90;99.90;;;;;;5059473;28;20047;-77
2022/03/31 12:47:09;;;;;;;10.90;6.40;;;0.50;99.90;;;;;;5057651;28;20079;-76
2022/03/31 12:49:37;;;;;;;11.63;6.07;;;0.50;99.90;;;;;;5039273;28;20113;-76
2022/03/31 12:52:10;;;;;;;10.65;6.40;;;0.60;99.90;;;;;;5061645;28;20479;-77
2022/03/31 12:54:40;;;;;;;10.13;6.55;;;0.60;99.90;;;;;;5043351;28;20707;-76
2022/03/31 12:57:23;;;;;;;11.05;6.63;;;0.50;99.90;;;;;;5067245;28;20125;-76
2022/03/31 13:00:06;;;;;;;12.10;6.70;;;0.60;99.90;;;;;;5071837;28;20068;-76